ENSB/LYR METAR and TAF weather

Enter ICAO airport designator
Station Type Date Time Source
ENSB METAR 2018/01/21 12:20 UTC NOAA

ENSB 211220Z 11012KT 9999 FEW035 M08/M11 Q1016 RMK WIND 1400FT 12010KT


Station Type Date Time Source
ENSB Decoded METAR 2018/01/21 12:20 UTC NOAA

Svalbard Lufthavn, Norway (ENSB) 78-15N 015-28E 29M
Jan 21, 2018 - 07:20 AM EST / 2018.01.21 1220 UTC
Wind: from the ESE (110 degrees) at 14 MPH (12 KT):0
Visibility: greater than 7 mile(s):0
Sky conditions: mostly clear
Temperature: 17 F (-8 C)
Windchill: 3 F (-16 C):1
Dew Point: 12 F (-11 C)
Relative Humidity: 78%
Pressure (altimeter): 30.00 in. Hg (1016 hPa)
ob: ENSB 211220Z 11012KT 9999 FEW035 M08/M11 Q1016 RMK WIND 1400FT 12010KT
cycle: 12

Station Type Date Time Source
ENSB TAF 2018/01/21 12:57 UTC NOAA

TAF ENSB 211100Z 2112/2212 12012KT 9999 FEW020 BKN035


Example: see airport list